createdAt,value
2019-05-20T00:00:13.740Z,0.00
2019-05-20T00:01:13.774Z,0.00
2019-05-20T00:02:24.496Z,0.00
2019-05-20T00:03:14.757Z,0.00
2019-05-20T00:04:13.712Z,0.00
2019-05-20T00:05:13.693Z,0.00
2019-05-20T00:06:13.701Z,0.00
2019-05-20T00:07:13.664Z,0.00
2019-05-20T00:08:13.657Z,0.00
2019-05-20T00:09:13.683Z,0.00
2019-05-20T00:10:13.634Z,0.00
2019-05-20T00:11:13.643Z,0.00
2019-05-20T00:12:13.607Z,0.00
2019-05-20T00:13:13.651Z,0.00
2019-05-20T00:14:13.585Z,0.00
2019-05-20T00:15:13.580Z,0.00
2019-05-20T00:16:13.565Z,0.00
2019-05-20T00:17:13.572Z,0.00
2019-05-20T00:18:13.586Z,0.00
2019-05-20T00:19:13.531Z,0.00
2019-05-20T00:20:13.530Z,0.00
2019-05-20T00:21:13.508Z,0.00
2019-05-20T00:22:13.495Z,0.00
2019-05-20T00:23:13.550Z,0.00
2019-05-20T00:24:13.516Z,0.00
2019-05-20T00:25:13.463Z,0.00
2019-05-20T00:26:13.497Z,0.00
2019-05-20T00:27:13.465Z,0.00
2019-05-20T00:28:13.477Z,0.00
2019-05-20T00:29:13.428Z,0.00
2019-05-20T00:30:13.417Z,0.00
2019-05-20T00:31:13.406Z,0.00
2019-05-20T00:32:13.397Z,0.00
2019-05-20T00:33:13.380Z,0.00
2019-05-20T00:34:13.403Z,0.00
2019-05-20T00:35:13.367Z,0.00
2019-05-20T00:36:13.338Z,0.00
2019-05-20T00:37:13.426Z,0.00
2019-05-20T00:38:13.318Z,0.00
2019-05-20T00:39:13.309Z,0.00
2019-05-20T00:40:13.297Z,0.00
2019-05-20T00:41:13.298Z,0.00
2019-05-20T00:42:13.270Z,0.00
2019-05-20T00:43:13.299Z,0.00
2019-05-20T00:44:13.251Z,0.00
2019-05-20T00:45:13.241Z,0.00
2019-05-20T00:46:13.270Z,0.00
2019-05-20T00:47:13.236Z,0.00
2019-05-20T00:48:13.213Z,0.00
2019-05-20T00:49:13.221Z,0.00
2019-05-20T00:50:13.197Z,0.00
2019-05-20T00:51:13.174Z,0.00
2019-05-20T00:52:13.244Z,0.00
2019-05-20T00:53:13.159Z,0.00
2019-05-20T00:54:13.139Z,0.00
2019-05-20T00:55:13.135Z,0.00
2019-05-20T00:56:13.115Z,0.00
2019-05-20T00:57:13.153Z,0.00
2019-05-20T00:58:13.116Z,0.00
2019-05-20T00:59:13.091Z,0.00
2019-05-20T01:00:13.080Z,0.00
2019-05-20T01:01:13.103Z,0.00
2019-05-20T01:02:13.091Z,0.00
2019-05-20T01:03:13.037Z,0.00
2019-05-20T01:04:13.026Z,0.00
2019-05-20T01:05:13.021Z,0.00
2019-05-20T01:06:13.003Z,0.00
2019-05-20T01:07:12.991Z,0.00
2019-05-20T01:08:13.017Z,0.00
2019-05-20T01:09:12.973Z,0.00
2019-05-20T01:10:12.966Z,0.00
2019-05-20T01:11:13.000Z,0.00
2019-05-20T01:12:12.934Z,0.00
2019-05-20T01:13:12.926Z,0.00
2019-05-20T01:14:12.915Z,0.00
2019-05-20T01:15:12.907Z,0.00
2019-05-20T01:16:12.939Z,0.00
2019-05-20T01:17:12.878Z,0.00
2019-05-20T01:18:12.870Z,0.00
2019-05-20T01:19:12.857Z,0.00
2019-05-20T01:20:12.895Z,0.00
2019-05-20T01:21:12.841Z,0.00
2019-05-20T01:22:12.834Z,0.00
2019-05-20T01:23:12.852Z,0.00
2019-05-20T01:24:12.798Z,0.00
2019-05-20T01:25:12.788Z,0.00
2019-05-20T01:26:12.783Z,0.00
2019-05-20T01:27:12.812Z,0.00
2019-05-20T01:28:12.755Z,0.00
2019-05-20T01:29:12.762Z,0.00
2019-05-20T01:30:12.728Z,0.00
2019-05-20T01:31:12.727Z,0.00
2019-05-20T01:32:12.719Z,0.00
2019-05-20T01:33:14.418Z,0.00
2019-05-20T01:34:12.684Z,0.00
2019-05-20T01:35:12.691Z,0.00
2019-05-20T01:36:12.676Z,0.00
2019-05-20T01:37:12.662Z,0.00
2019-05-20T01:38:12.684Z,0.00
2019-05-20T01:39:12.631Z,0.00
2019-05-20T01:40:12.637Z,0.00
2019-05-20T01:41:12.613Z,0.00
2019-05-20T01:42:12.605Z,0.00
2019-05-20T01:43:12.631Z,0.00
2019-05-20T01:44:12.575Z,0.00
2019-05-20T01:45:12.607Z,0.00
2019-05-20T01:46:12.557Z,0.00
2019-05-20T01:47:12.543Z,0.00
2019-05-20T01:48:12.569Z,0.00
2019-05-20T01:49:12.536Z,0.00
2019-05-20T01:50:12.544Z,0.00
2019-05-20T01:51:12.497Z,0.00
2019-05-20T01:52:12.482Z,0.00
2019-05-20T01:53:12.478Z,0.00
2019-05-20T01:54:12.508Z,0.00
2019-05-20T01:55:12.458Z,0.00
2019-05-20T01:56:12.457Z,0.00
2019-05-20T01:57:12.441Z,0.00
2019-05-20T01:58:12.430Z,0.00
2019-05-20T01:59:12.403Z,0.00
2019-05-20T02:00:12.435Z,0.00
2019-05-20T02:01:12.386Z,0.00
2019-05-20T02:02:12.371Z,0.00
2019-05-20T02:03:12.365Z,0.00
2019-05-20T02:04:12.389Z,0.00
2019-05-20T02:05:12.337Z,0.00
2019-05-20T02:06:12.325Z,0.00
2019-05-20T02:07:12.357Z,0.00
2019-05-20T02:08:12.310Z,0.00
2019-05-20T02:09:12.293Z,0.00
2019-05-20T02:10:12.327Z,0.00
2019-05-20T02:11:12.270Z,0.00
2019-05-20T02:12:12.260Z,0.00
2019-05-20T02:13:12.245Z,0.00
2019-05-20T02:14:12.247Z,0.00
2019-05-20T02:15:12.277Z,0.00
2019-05-20T02:16:12.212Z,0.00
2019-05-20T02:17:12.204Z,0.00
2019-05-20T02:18:12.190Z,0.00
2019-05-20T02:19:12.200Z,0.00
2019-05-20T02:20:12.166Z,0.00
2019-05-20T02:21:12.207Z,0.00
2019-05-20T02:22:12.201Z,0.00
2019-05-20T02:23:12.132Z,0.00
2019-05-20T02:24:12.130Z,0.00
2019-05-20T02:25:12.114Z,0.00
2019-05-20T02:26:12.170Z,0.00
2019-05-20T02:27:12.129Z,0.00
2019-05-20T02:28:12.076Z,0.00
2019-05-20T02:29:12.110Z,0.00
2019-05-20T02:30:12.077Z,0.00
2019-05-20T02:31:12.044Z,0.00
2019-05-20T02:32:12.037Z,0.00
2019-05-20T02:33:12.019Z,0.00
2019-05-20T02:34:12.025Z,0.00
2019-05-20T02:35:12.050Z,0.00
2019-05-20T02:36:11.985Z,0.00
2019-05-20T02:37:11.975Z,0.00
2019-05-20T02:38:11.963Z,0.00
2019-05-20T02:39:11.961Z,0.00
2019-05-20T02:40:11.989Z,0.00
2019-05-20T02:41:11.939Z,0.00
2019-05-20T02:42:11.915Z,0.00
2019-05-20T02:43:11.908Z,0.00
2019-05-20T02:44:11.948Z,0.00
2019-05-20T02:45:11.882Z,0.00
2019-05-20T02:46:11.875Z,0.00
2019-05-20T02:47:11.912Z,0.00
2019-05-20T02:48:11.892Z,0.00
2019-05-20T02:49:11.881Z,0.00
2019-05-20T02:50:11.826Z,0.00
2019-05-20T02:51:11.823Z,0.00
2019-05-20T02:52:11.806Z,0.00
2019-05-20T02:53:11.839Z,0.00
2019-05-20T02:54:11.787Z,0.00
2019-05-20T02:55:11.782Z,0.00
2019-05-20T02:56:11.800Z,0.00
2019-05-20T02:57:11.754Z,0.00
2019-05-20T02:58:11.740Z,0.00
2019-05-20T02:59:11.767Z,0.00
2019-05-20T03:00:11.720Z,0.00
2019-05-20T03:01:11.762Z,0.00
2019-05-20T03:02:12.024Z,0.00
2019-05-20T03:03:11.682Z,0.00
2019-05-20T03:04:13.081Z,0.00
2019-05-20T03:05:11.659Z,0.00
2019-05-20T03:06:11.645Z,0.00
2019-05-20T03:07:11.691Z,0.00
2019-05-20T03:08:11.633Z,0.00
2019-05-20T03:09:12.479Z,0.00
2019-05-20T03:10:11.611Z,0.00
2019-05-20T03:11:11.590Z,0.00
2019-05-20T03:12:11.583Z,0.00
2019-05-20T03:13:11.570Z,0.00
2019-05-20T03:14:11.567Z,0.00
2019-05-20T03:15:11.597Z,0.00
2019-05-20T03:16:15.452Z,0.00
2019-05-20T03:17:11.525Z,0.00
2019-05-20T03:18:11.521Z,0.00
2019-05-20T03:19:11.549Z,0.00
2019-05-20T03:20:11.492Z,0.00
2019-05-20T03:21:11.480Z,0.00
2019-05-20T03:22:11.473Z,0.00
2019-05-20T03:23:11.457Z,0.00
2019-05-20T03:24:11.488Z,0.00
2019-05-20T03:25:11.459Z,0.00
2019-05-20T03:26:11.439Z,0.00
2019-05-20T03:27:11.413Z,0.00
2019-05-20T03:28:11.403Z,0.00
2019-05-20T03:29:11.435Z,0.00
2019-05-20T03:30:11.386Z,0.00
2019-05-20T03:31:11.438Z,0.00
2019-05-20T03:32:11.372Z,0.00
2019-05-20T03:33:11.395Z,0.00
2019-05-20T03:34:38.787Z,0.00
2019-05-20T03:35:12.329Z,0.00
2019-05-20T03:36:11.363Z,0.00
2019-05-20T03:37:11.299Z,0.00
2019-05-20T03:38:11.283Z,0.00
2019-05-20T03:39:11.281Z,0.00
2019-05-20T03:40:11.283Z,0.00
2019-05-20T03:41:11.264Z,0.00
2019-05-20T03:42:11.291Z,0.00
2019-05-20T03:43:11.230Z,0.00
2019-05-20T03:44:11.224Z,0.00
2019-05-20T03:45:11.221Z,0.00
2019-05-20T03:46:11.242Z,0.00
2019-05-20T03:47:11.194Z,0.00
2019-05-20T03:48:11.172Z,0.00
2019-05-20T03:49:11.174Z,0.00
2019-05-20T03:50:11.153Z,0.00
2019-05-20T03:51:11.181Z,0.00
2019-05-20T03:52:11.185Z,0.00
2019-05-20T03:53:11.168Z,0.00
2019-05-20T03:54:11.157Z,0.00
2019-05-20T03:55:11.148Z,0.00
2019-05-20T03:56:11.088Z,0.00
2019-05-20T03:57:11.075Z,0.00
2019-05-20T03:58:13.620Z,0.00
2019-05-20T03:59:11.051Z,0.00
2019-05-20T04:00:11.046Z,0.00
2019-05-20T04:01:11.115Z,0.00
2019-05-20T04:02:11.019Z,0.00
2019-05-20T04:03:11.009Z,0.00
2019-05-20T04:04:11.003Z,0.00
2019-05-20T04:05:11.042Z,0.00
2019-05-20T04:06:11.016Z,0.00
2019-05-20T04:07:11.001Z,0.00
2019-05-20T04:08:10.953Z,5.62
2019-05-20T04:09:10.943Z,5.62
2019-05-20T04:10:10.925Z,5.62
2019-05-20T04:11:10.916Z,5.62
2019-05-20T04:12:10.950Z,5.62
2019-05-20T04:13:10.892Z,5.62
2019-05-20T04:14:10.884Z,5.62
2019-05-20T04:15:10.874Z,5.62
2019-05-20T04:16:10.920Z,5.62
2019-05-20T04:17:10.889Z,0.00
2019-05-20T04:18:10.840Z,0.00
2019-05-20T04:19:10.828Z,0.00
2019-05-20T04:20:10.873Z,5.62
2019-05-20T04:21:10.802Z,5.62
2019-05-20T04:22:10.788Z,5.62
2019-05-20T04:23:10.829Z,5.62
2019-05-20T04:24:10.786Z,5.62
2019-05-20T04:25:10.774Z,5.62
2019-05-20T04:26:10.757Z,5.62
2019-05-20T04:27:10.911Z,5.62
2019-05-20T04:28:10.724Z,5.62
2019-05-20T04:29:10.758Z,11.25
2019-05-20T04:30:10.700Z,11.25
2019-05-20T04:31:10.728Z,11.25
2019-05-20T04:32:10.678Z,11.25
2019-05-20T04:33:10.710Z,11.25
2019-05-20T04:34:10.653Z,11.25
2019-05-20T04:35:22.187Z,11.25
2019-05-20T04:36:11.641Z,11.25
2019-05-20T04:37:10.667Z,11.25
2019-05-20T04:38:10.627Z,11.25
2019-05-20T04:39:10.603Z,11.25
2019-05-20T04:40:10.587Z,11.25
2019-05-20T04:41:10.618Z,16.88
2019-05-20T04:42:10.570Z,16.88
2019-05-20T04:43:10.553Z,11.25
2019-05-20T04:44:11.219Z,11.25
2019-05-20T04:45:10.560Z,11.25
2019-05-20T04:46:10.523Z,11.25
2019-05-20T04:47:10.511Z,16.88
2019-05-20T04:48:13.725Z,16.88
2019-05-20T04:49:10.525Z,16.88
2019-05-20T04:50:10.482Z,22.50
2019-05-20T04:51:10.511Z,22.50
2019-05-20T04:52:10.461Z,22.50
2019-05-20T04:53:10.448Z,22.50
2019-05-20T04:54:10.436Z,28.12
2019-05-20T04:55:10.421Z,28.12
2019-05-20T04:56:10.462Z,28.12
2019-05-20T04:57:10.407Z,28.12
2019-05-20T04:58:10.430Z,28.12
2019-05-20T04:59:10.382Z,28.12
2019-05-20T05:00:10.397Z,28.12
2019-05-20T05:01:10.371Z,28.12
2019-05-20T05:02:10.646Z,28.12
2019-05-20T05:03:10.337Z,28.12
2019-05-20T05:04:10.323Z,28.12
2019-05-20T05:05:10.326Z,28.12
2019-05-20T05:06:10.354Z,28.12
2019-05-20T05:07:10.282Z,28.12
2019-05-20T05:08:10.325Z,28.12
2019-05-20T05:09:10.284Z,28.12
2019-05-20T05:10:10.261Z,28.12
2019-05-20T05:11:10.302Z,28.12
2019-05-20T05:12:10.245Z,28.12
2019-05-20T05:13:10.264Z,28.12
2019-05-20T05:14:10.233Z,22.50
2019-05-20T05:15:10.230Z,22.50
2019-05-20T05:16:10.188Z,22.50
2019-05-20T05:17:10.213Z,22.50
2019-05-20T05:18:10.181Z,28.12
2019-05-20T05:19:10.797Z,28.12
2019-05-20T05:20:17.601Z,28.12
2019-05-20T05:21:11.129Z,28.12
2019-05-20T05:22:10.133Z,28.12
2019-05-20T05:23:10.117Z,28.12
2019-05-20T05:24:10.156Z,28.12
2019-05-20T05:25:10.089Z,33.75
2019-05-20T05:26:10.075Z,33.75
2019-05-20T05:27:10.064Z,39.38
2019-05-20T05:28:10.064Z,45.00
2019-05-20T05:29:10.041Z,45.00
2019-05-20T05:30:10.083Z,45.00
2019-05-20T05:31:10.033Z,45.00
2019-05-20T05:32:10.002Z,45.00
2019-05-20T05:33:10.071Z,50.62
2019-05-20T05:34:10.015Z,56.25
2019-05-20T05:35:10.227Z,50.62
2019-05-20T05:36:10.058Z,50.62
2019-05-20T05:37:09.951Z,50.62
2019-05-20T05:38:09.976Z,56.25
2019-05-20T05:39:10.705Z,56.25
2019-05-20T05:40:10.086Z,56.25
2019-05-20T05:41:09.902Z,61.88
2019-05-20T05:42:09.903Z,67.50
2019-05-20T05:43:09.939Z,67.50
2019-05-20T05:44:09.881Z,67.50
2019-05-20T05:45:09.892Z,67.50
2019-05-20T05:46:09.900Z,67.50
2019-05-20T05:47:09.842Z,67.50
2019-05-20T05:48:09.881Z,73.12
2019-05-20T05:49:09.881Z,73.12
2019-05-20T05:50:09.891Z,67.50
2019-05-20T05:51:09.858Z,67.50
2019-05-20T05:52:09.955Z,67.50
2019-05-20T05:53:09.971Z,67.50
2019-05-20T05:54:09.759Z,61.88
2019-05-20T05:55:09.779Z,61.88
2019-05-20T05:56:09.775Z,61.88
2019-05-20T05:57:09.721Z,61.88
2019-05-20T05:58:09.738Z,61.88
2019-05-20T05:59:09.809Z,56.25
2019-05-20T06:00:09.702Z,56.25
2019-05-20T06:01:09.718Z,67.50
2019-05-20T06:02:09.681Z,73.12
2019-05-20T06:03:09.680Z,73.12
2019-05-20T06:04:09.692Z,73.12
2019-05-20T06:05:09.638Z,67.50
2019-05-20T06:06:12.719Z,61.88
2019-05-20T06:07:09.635Z,61.88
2019-05-20T06:08:09.613Z,61.88
2019-05-20T06:09:09.660Z,61.88
2019-05-20T06:10:18.312Z,61.88
2019-05-20T06:11:09.579Z,61.88
2019-05-20T06:12:09.564Z,61.88
2019-05-20T06:13:09.560Z,61.88
2019-05-20T06:14:09.727Z,56.25
2019-05-20T06:15:09.582Z,56.25
2019-05-20T06:16:09.517Z,61.88
2019-05-20T06:17:09.554Z,61.88
2019-05-20T06:18:09.537Z,61.88
2019-05-20T06:19:09.479Z,61.88
2019-05-20T06:20:09.473Z,67.50
2019-05-20T06:21:09.509Z,67.50
2019-05-20T06:22:09.548Z,73.12
2019-05-20T06:23:09.441Z,78.75
2019-05-20T06:24:09.570Z,78.75
2019-05-20T06:25:09.507Z,78.75
2019-05-20T06:26:09.627Z,73.12
2019-05-20T06:27:09.748Z,67.50
2019-05-20T06:28:09.411Z,67.50
2019-05-20T06:29:09.404Z,73.12
2019-05-20T06:30:09.356Z,73.12
2019-05-20T06:31:09.367Z,67.50
2019-05-20T06:32:09.334Z,61.88
2019-05-20T06:33:09.377Z,56.25
2019-05-20T06:34:09.347Z,56.25
2019-05-20T06:35:09.370Z,50.62
2019-05-20T06:36:09.314Z,45.00
2019-05-20T06:37:09.281Z,39.38
2019-05-20T06:38:09.273Z,39.38
2019-05-20T06:39:09.307Z,39.38
2019-05-20T06:40:09.250Z,45.00
2019-05-20T06:41:09.261Z,45.00
2019-05-20T06:42:09.222Z,45.00
2019-05-20T06:43:09.257Z,45.00
2019-05-20T06:44:09.219Z,45.00
2019-05-20T06:45:11.104Z,50.62
2019-05-20T06:46:09.404Z,50.62
2019-05-20T06:47:09.241Z,56.25
2019-05-20T06:48:09.168Z,56.25
2019-05-20T06:49:09.347Z,50.62
2019-05-20T06:50:09.223Z,50.62
2019-05-20T06:51:09.125Z,50.62
2019-05-20T06:52:09.191Z,50.62
2019-05-20T06:53:09.126Z,56.25
2019-05-20T06:54:09.107Z,61.88
2019-05-20T06:55:09.144Z,61.88
2019-05-20T06:56:09.096Z,67.50
2019-05-20T06:57:09.088Z,67.50
2019-05-20T06:58:09.046Z,61.88
2019-05-20T06:59:09.072Z,61.88
2019-05-20T07:00:09.022Z,61.88
2019-05-20T07:01:09.055Z,61.88
2019-05-20T07:02:09.040Z,61.88
2019-05-20T07:03:08.986Z,56.25
2019-05-20T07:04:08.973Z,56.25
2019-05-20T07:05:09.000Z,56.25
2019-05-20T07:06:09.178Z,56.25
2019-05-20T07:07:20.377Z,56.25
2019-05-20T07:08:10.048Z,56.25
2019-05-20T07:09:08.963Z,50.62
2019-05-20T07:10:08.979Z,50.62
2019-05-20T07:11:08.937Z,50.62
2019-05-20T07:12:10.129Z,50.62
2019-05-20T07:13:09.213Z,56.25
2019-05-20T07:14:08.861Z,56.25
2019-05-20T07:15:09.195Z,61.88
2019-05-20T07:16:08.870Z,56.25
2019-05-20T07:17:09.134Z,50.62
2019-05-20T07:18:08.931Z,50.62
2019-05-20T07:19:08.916Z,50.62
2019-05-20T07:20:08.799Z,56.25
2019-05-20T07:21:08.919Z,50.62
2019-05-20T07:22:08.820Z,50.62
2019-05-20T07:23:09.625Z,50.62
2019-05-20T07:24:08.759Z,50.62
2019-05-20T07:25:08.869Z,50.62
2019-05-20T07:26:08.767Z,50.62
2019-05-20T07:27:08.796Z,50.62
2019-05-20T07:28:08.759Z,56.25
2019-05-20T07:29:08.817Z,56.25
2019-05-20T07:30:08.692Z,56.25
2019-05-20T07:31:08.690Z,61.88
2019-05-20T07:32:08.703Z,61.88
2019-05-20T07:33:08.715Z,61.88
2019-05-20T07:34:08.704Z,67.50
2019-05-20T07:35:08.636Z,67.50
2019-05-20T07:36:10.172Z,61.88
2019-05-20T07:37:08.624Z,61.88
2019-05-20T07:38:08.660Z,56.25
2019-05-20T07:39:08.585Z,56.25
2019-05-20T07:40:08.579Z,56.25
2019-05-20T07:41:08.621Z,61.88
2019-05-20T07:42:08.553Z,61.88
2019-05-20T07:43:08.591Z,61.88
2019-05-20T07:44:08.540Z,67.50
2019-05-20T07:45:08.562Z,67.50
2019-05-20T07:46:08.571Z,67.50
2019-05-20T07:47:10.898Z,73.12
2019-05-20T07:48:08.490Z,73.12
2019-05-20T07:49:08.562Z,73.12
2019-05-20T07:50:08.456Z,78.75
2019-05-20T07:51:08.472Z,90.00
2019-05-20T07:52:08.478Z,95.62
2019-05-20T07:53:08.491Z,95.62
2019-05-20T07:54:08.516Z,90.00
2019-05-20T07:55:09.134Z,84.38
2019-05-20T07:56:08.407Z,84.38
2019-05-20T07:57:08.547Z,84.38
2019-05-20T07:58:08.435Z,84.38
2019-05-20T07:59:08.734Z,84.38
2019-05-20T08:00:08.458Z,84.38
2019-05-20T08:01:08.472Z,78.75
2019-05-20T08:02:08.487Z,78.75
2019-05-20T08:03:08.377Z,84.38
2019-05-20T08:04:08.507Z,78.75
2019-05-20T08:05:08.376Z,78.75
2019-05-20T08:06:08.335Z,78.75
2019-05-20T08:07:26.838Z,73.12
2019-05-20T08:08:09.267Z,73.12
2019-05-20T08:09:08.442Z,73.12
2019-05-20T08:10:08.314Z,73.12
2019-05-20T08:11:08.318Z,73.12
2019-05-20T08:12:08.293Z,78.75
2019-05-20T08:13:08.456Z,78.75
2019-05-20T08:14:08.389Z,78.75
2019-05-20T08:15:08.995Z,84.38
2019-05-20T08:16:08.198Z,90.00
2019-05-20T08:17:08.208Z,84.38
2019-05-20T08:18:08.149Z,78.75
2019-05-20T08:19:08.158Z,78.75
2019-05-20T08:20:08.321Z,84.38
2019-05-20T08:21:08.333Z,84.38
2019-05-20T08:22:08.103Z,84.38
2019-05-20T08:23:08.124Z,84.38
2019-05-20T08:24:08.141Z,84.38
2019-05-20T08:25:08.121Z,90.00
2019-05-20T08:26:08.099Z,90.00
2019-05-20T08:27:08.149Z,95.62
2019-05-20T08:28:08.036Z,95.62
2019-05-20T08:29:08.034Z,95.62
2019-05-20T08:30:08.090Z,95.62
2019-05-20T08:31:08.002Z,95.62
2019-05-20T08:32:08.051Z,95.62
2019-05-20T08:33:08.003Z,95.62
2019-05-20T08:34:07.976Z,90.00
2019-05-20T08:35:08.137Z,90.00
2019-05-20T08:36:07.984Z,90.00
2019-05-20T08:37:08.002Z,90.00
2019-05-20T08:38:07.934Z,90.00
2019-05-20T08:39:07.943Z,95.62
2019-05-20T08:40:07.944Z,95.62
2019-05-20T08:41:07.974Z,101.25
2019-05-20T08:42:07.965Z,95.62
2019-05-20T08:43:07.977Z,95.62
2019-05-20T08:44:07.911Z,95.62
2019-05-20T08:45:07.887Z,95.62
2019-05-20T08:46:07.866Z,95.62
2019-05-20T08:47:08.195Z,101.25
2019-05-20T08:48:08.646Z,106.88
2019-05-20T08:49:11.109Z,112.50
2019-05-20T08:50:12.870Z,106.88
2019-05-20T08:51:08.859Z,106.88
2019-05-20T08:52:07.797Z,101.25
2019-05-20T08:53:07.994Z,101.25
2019-05-20T08:54:08.280Z,95.62
2019-05-20T08:55:07.920Z,95.62
2019-05-20T08:56:07.852Z,95.62
2019-05-20T08:57:07.939Z,90.00
2019-05-20T08:58:08.732Z,90.00
2019-05-20T08:59:08.039Z,90.00
2019-05-20T09:00:08.203Z,90.00
2019-05-20T09:01:09.110Z,90.00
2019-05-20T09:02:07.659Z,90.00
2019-05-20T09:03:07.662Z,90.00
2019-05-20T09:04:07.972Z,90.00
2019-05-20T09:05:08.038Z,90.00
2019-05-20T09:06:07.927Z,90.00
2019-05-20T09:07:07.614Z,90.00
2019-05-20T09:08:07.632Z,90.00
2019-05-20T09:09:11.794Z,90.00
2019-05-20T09:10:07.653Z,90.00
2019-05-20T09:11:07.577Z,90.00
2019-05-20T09:12:07.602Z,90.00
2019-05-20T09:13:07.537Z,90.00
2019-05-20T09:14:07.672Z,90.00
2019-05-20T09:15:08.082Z,84.38
2019-05-20T09:16:07.570Z,84.38
2019-05-20T09:17:07.484Z,84.38
2019-05-20T09:18:07.503Z,84.38
2019-05-20T09:19:07.562Z,84.38
2019-05-20T09:20:07.621Z,84.38
2019-05-20T09:21:07.561Z,90.00
2019-05-20T09:22:07.534Z,90.00
2019-05-20T09:23:07.437Z,90.00
2019-05-20T09:24:08.098Z,90.00
2019-05-20T09:25:07.643Z,90.00
2019-05-20T09:26:07.557Z,95.62
2019-05-20T09:27:07.869Z,95.62
2019-05-20T09:28:07.364Z,101.25
2019-05-20T09:29:11.089Z,101.25
2019-05-20T09:30:07.397Z,106.88
2019-05-20T09:31:07.673Z,112.50
2019-05-20T09:32:07.343Z,118.12
2019-05-20T09:33:07.743Z,112.50
2019-05-20T09:34:07.440Z,118.12
2019-05-20T09:35:07.333Z,118.12
2019-05-20T09:36:07.286Z,118.12
2019-05-20T09:37:07.900Z,112.50
2019-05-20T09:38:19.398Z,106.88
2019-05-20T09:39:08.770Z,106.88
2019-05-20T09:40:07.663Z,101.25
2019-05-20T09:41:07.338Z,95.62
2019-05-20T09:42:07.263Z,95.62
2019-05-20T09:43:07.203Z,95.62
2019-05-20T09:44:07.243Z,95.62
2019-05-20T09:45:07.176Z,101.25
2019-05-20T09:46:08.407Z,95.62
2019-05-20T09:47:07.235Z,95.62
2019-05-20T09:48:07.188Z,95.62
2019-05-20T09:49:07.325Z,95.62
2019-05-20T09:50:07.197Z,95.62
2019-05-20T09:51:07.208Z,90.00
2019-05-20T09:52:07.382Z,90.00
2019-05-20T09:53:07.784Z,90.00
2019-05-20T09:54:07.159Z,90.00
2019-05-20T09:55:07.089Z,90.00
2019-05-20T09:56:07.092Z,95.62
2019-05-20T09:57:07.089Z,90.00
2019-05-20T09:58:07.033Z,90.00
2019-05-20T09:59:07.014Z,84.38
2019-05-20T10:00:07.811Z,84.38
2019-05-20T10:01:07.094Z,95.62
2019-05-20T10:02:07.084Z,95.62
2019-05-20T10:03:07.801Z,90.00
2019-05-20T10:04:06.963Z,90.00
2019-05-20T10:05:07.459Z,84.38
2019-05-20T10:06:06.949Z,84.38
2019-05-20T10:07:07.018Z,90.00
2019-05-20T10:08:06.963Z,95.62
2019-05-20T10:09:07.107Z,95.62
2019-05-20T10:10:06.976Z,90.00
2019-05-20T10:11:06.960Z,84.38
2019-05-20T10:12:08.474Z,84.38
2019-05-20T10:13:07.390Z,78.75
2019-05-20T10:14:06.971Z,78.75
2019-05-20T10:15:06.885Z,78.75
2019-05-20T10:16:06.960Z,78.75
2019-05-20T10:17:06.988Z,84.38
2019-05-20T10:18:06.899Z,84.38
2019-05-20T10:19:06.831Z,90.00
2019-05-20T10:20:06.784Z,95.62
2019-05-20T10:21:06.820Z,90.00
2019-05-20T10:22:06.785Z,90.00
2019-05-20T10:23:06.927Z,95.62
2019-05-20T10:24:06.889Z,95.62
2019-05-20T10:25:06.790Z,101.25
2019-05-20T10:26:06.720Z,101.25
2019-05-20T10:27:06.745Z,106.88
2019-05-20T10:28:06.717Z,118.12
2019-05-20T10:29:06.734Z,118.12
2019-05-20T10:30:06.689Z,123.75
2019-05-20T10:31:06.804Z,123.75
2019-05-20T10:32:06.745Z,123.75
2019-05-20T10:33:09.528Z,129.38
2019-05-20T10:34:06.893Z,129.38
2019-05-20T10:35:08.162Z,129.38
2019-05-20T10:36:06.630Z,129.38
2019-05-20T10:37:06.620Z,129.38
2019-05-20T10:38:06.582Z,129.38
2019-05-20T10:39:07.898Z,129.38
2019-05-20T10:40:06.550Z,135.00
2019-05-20T10:41:06.649Z,140.62
2019-05-20T10:42:06.573Z,146.25
2019-05-20T10:43:08.358Z,151.88
2019-05-20T10:44:06.607Z,157.50
2019-05-20T10:45:06.509Z,168.75
2019-05-20T10:46:06.613Z,180.00
2019-05-20T10:47:06.483Z,191.25
2019-05-20T10:48:08.874Z,191.25
2019-05-20T10:49:06.454Z,180.00
2019-05-20T10:50:06.518Z,180.00
2019-05-20T10:51:10.231Z,163.12
2019-05-20T10:52:06.414Z,163.12
2019-05-20T10:53:06.488Z,163.12
2019-05-20T10:54:06.466Z,151.88
2019-05-20T10:55:06.887Z,146.25
2019-05-20T10:56:07.815Z,135.00
2019-05-20T10:57:06.484Z,135.00
2019-05-20T10:58:06.415Z,140.62
2019-05-20T10:59:11.912Z,146.25
2019-05-20T11:00:07.454Z,123.75
2019-05-20T11:01:06.751Z,112.50
2019-05-20T11:02:06.355Z,106.88
2019-05-20T11:03:06.611Z,118.12
2019-05-20T11:04:06.462Z,112.50
2019-05-20T11:05:06.313Z,112.50
2019-05-20T11:06:06.372Z,112.50
2019-05-20T11:07:06.276Z,112.50
2019-05-20T11:08:06.418Z,112.50
2019-05-20T11:09:13.998Z,118.12
2019-05-20T11:10:07.344Z,112.50
2019-05-20T11:11:06.257Z,112.50
2019-05-20T11:12:06.238Z,118.12
2019-05-20T11:13:06.249Z,118.12
2019-05-20T11:14:06.281Z,118.12
2019-05-20T11:15:06.349Z,112.50
2019-05-20T11:16:06.150Z,106.88
2019-05-20T11:17:06.269Z,106.88
2019-05-20T11:18:06.184Z,112.50
2019-05-20T11:19:06.116Z,112.50
2019-05-20T11:20:06.112Z,118.12
2019-05-20T11:21:06.254Z,118.12
2019-05-20T11:22:06.169Z,123.75
2019-05-20T11:23:06.104Z,123.75
2019-05-20T11:24:06.080Z,123.75
2019-05-20T11:25:06.069Z,135.00
2019-05-20T11:26:06.039Z,140.62
2019-05-20T11:27:06.089Z,135.00
2019-05-20T11:28:06.087Z,129.38
2019-05-20T11:29:06.195Z,135.00
2019-05-20T11:30:05.995Z,129.38
2019-05-20T11:31:06.106Z,129.38
2019-05-20T11:32:06.080Z,129.38
2019-05-20T11:33:05.959Z,129.38
2019-05-20T11:34:06.424Z,129.38
2019-05-20T11:35:05.983Z,135.00
2019-05-20T11:36:06.221Z,140.62
2019-05-20T11:37:06.002Z,151.88
2019-05-20T11:38:05.930Z,151.88
2019-05-20T11:39:07.301Z,151.88
2019-05-20T11:40:06.394Z,151.88
2019-05-20T11:41:05.975Z,146.25
2019-05-20T11:42:05.935Z,135.00
2019-05-20T11:43:05.862Z,129.38
2019-05-20T11:44:05.839Z,129.38
2019-05-20T11:45:05.821Z,135.00
2019-05-20T11:46:05.819Z,140.62
2019-05-20T11:47:05.805Z,151.88
2019-05-20T11:48:05.831Z,151.88
2019-05-20T11:49:05.782Z,157.50
2019-05-20T11:50:05.766Z,163.12
2019-05-20T11:51:05.808Z,168.75
2019-05-20T11:52:05.743Z,174.38
2019-05-20T11:53:05.757Z,180.00
2019-05-20T11:54:05.836Z,180.00
2019-05-20T11:55:05.727Z,180.00
2019-05-20T11:56:05.704Z,185.62
2019-05-20T11:57:05.744Z,202.50
2019-05-20T11:58:15.392Z,219.38
2019-05-20T11:59:06.692Z,225.00
2019-05-20T12:00:05.669Z,208.12
2019-05-20T12:01:05.679Z,185.62
2019-05-20T12:02:05.805Z,168.75
2019-05-20T12:03:05.642Z,174.38
2019-05-20T12:04:05.649Z,163.12
2019-05-20T12:05:05.620Z,163.12
2019-05-20T12:06:05.987Z,163.12
2019-05-20T12:07:08.459Z,157.50
2019-05-20T12:08:05.624Z,157.50
2019-05-20T12:09:05.578Z,157.50
2019-05-20T12:10:05.561Z,146.25
2019-05-20T12:11:05.622Z,146.25
2019-05-20T12:12:05.523Z,151.88
2019-05-20T12:13:05.572Z,157.50
2019-05-20T12:14:05.503Z,151.88
2019-05-20T12:15:06.362Z,157.50
2019-05-20T12:16:05.474Z,151.88
2019-05-20T12:17:05.544Z,135.00
2019-05-20T12:18:05.444Z,135.00
2019-05-20T12:19:05.476Z,129.38
2019-05-20T12:20:06.771Z,140.62
2019-05-20T12:21:05.411Z,135.00
2019-05-20T12:22:05.535Z,118.12
2019-05-20T12:23:05.499Z,106.88
2019-05-20T12:24:05.389Z,112.50
2019-05-20T12:25:05.418Z,129.38
2019-05-20T12:26:05.481Z,129.38
2019-05-20T12:27:05.414Z,129.38
2019-05-20T12:28:05.338Z,129.38
2019-05-20T12:29:05.373Z,140.62
2019-05-20T12:30:05.328Z,135.00
2019-05-20T12:31:05.462Z,135.00
2019-05-20T12:32:05.360Z,135.00
2019-05-20T12:33:18.511Z,135.00
2019-05-20T12:34:06.314Z,140.62
2019-05-20T12:35:05.260Z,146.25
2019-05-20T12:36:05.287Z,151.88
2019-05-20T12:37:05.244Z,151.88
2019-05-20T12:38:05.248Z,151.88
2019-05-20T12:39:05.328Z,146.25
2019-05-20T12:40:07.510Z,129.38
2019-05-20T12:41:05.219Z,123.75
2019-05-20T12:42:05.186Z,118.12
2019-05-20T12:43:05.191Z,118.12
2019-05-20T12:44:12.023Z,118.12
2019-05-20T12:45:06.189Z,118.12
2019-05-20T12:46:05.160Z,118.12
2019-05-20T12:47:05.181Z,118.12
2019-05-20T12:48:05.125Z,118.12
2019-05-20T12:49:05.277Z,123.75
2019-05-20T12:50:05.144Z,129.38
2019-05-20T12:51:05.081Z,129.38
2019-05-20T12:52:05.176Z,123.75
2019-05-20T12:53:05.097Z,118.12
2019-05-20T12:54:05.044Z,112.50
2019-05-20T12:55:08.481Z,106.88